Time;durP1;ratioP1;P1;durP2;ratioP2;P2;SDS_P1;SDS_P2;PMS_P1;PMS_P2;Temp;Humidity;BMP_temperature;BMP_pressure;BME280_temperature;BME280_humidity;BME280_pressure;Samples;Min_cycle;Max_cycle;Signal;HPM_P1;HPM_P2
2021/12/08 00:00:22;;;;;;;;;1.00;1.00;;;;;;;;5083029;27;45525;-43
2021/12/08 00:02:48;;;;;;;;;1.33;0.00;;;;;;;;5078837;28;46560;-44
2021/12/08 00:05:14;;;;;;;;;0.33;0.00;;;;;;;;5078974;27;45406;-43
2021/12/08 00:07:40;;;;;;;;;1.00;1.00;;;;;;;;5079349;27;45373;-44
2021/12/08 00:10:17;;;;;;;;;4.33;1.00;;;;;;;;5079830;27;45354;-45
2021/12/08 00:13:03;;;;;;;;;0.67;0.00;;;;;;;;5060254;28;46482;-43
2021/12/08 00:15:31;;;;;;;;;1.00;1.00;;;;;;;;5078960;28;45273;-44
2021/12/08 00:17:56;;;;;;;;;1.00;1.00;;;;;;;;5078362;28;45413;-45
2021/12/08 00:20:22;;;;;;;;;1.00;1.00;;;;;;;;5098220;27;45397;-44
2021/12/08 00:22:47;;;;;;;;;1.25;1.00;;;;;;;;5099093;27;46311;-45
2021/12/08 00:25:12;;;;;;;;;3.00;1.00;;;;;;;;5093478;27;45410;-43
2021/12/08 00:27:38;;;;;;;;;1.00;1.00;;;;;;;;5095922;27;45376;-43
2021/12/08 00:30:03;;;;;;;;;0.67;0.67;;;;;;;;5095927;27;45645;-44
2021/12/08 00:32:31;;;;;;;;;2.00;0.75;;;;;;;;5096397;27;46091;-44
2021/12/08 00:34:56;;;;;;;;;2.00;0.00;;;;;;;;5079890;27;45543;-44
2021/12/08 00:37:23;;;;;;;;;0.00;0.00;;;;;;;;5098335;27;45467;-45
2021/12/08 00:39:48;;;;;;;;;4.25;1.00;;;;;;;;5091481;27;45479;-43
2021/12/08 00:42:14;;;;;;;;;1.00;1.00;;;;;;;;5096502;27;46235;-44
2021/12/08 00:44:39;;;;;;;;;0.67;0.67;;;;;;;;5097321;27;45501;-45
2021/12/08 00:47:04;;;;;;;;;0.00;0.00;;;;;;;;5097713;27;45263;-46
2021/12/08 00:49:30;;;;;;;;;0.00;0.00;;;;;;;;5096738;27;45635;-44
2021/12/08 00:51:55;;;;;;;;;1.75;1.00;;;;;;;;5095748;27;45346;-43
2021/12/08 00:54:20;;;;;;;;;0.00;0.00;;;;;;;;5096898;27;45224;-44
2021/12/08 00:56:45;;;;;;;;;0.75;0.75;;;;;;;;5095738;27;45531;-44
2021/12/08 00:59:11;;;;;;;;;0.50;0.50;;;;;;;;5091609;27;45402;-43
2021/12/08 01:01:36;;;;;;;;;0.00;0.00;;;;;;;;5091436;27;45427;-42
2021/12/08 01:04:01;;;;;;;;;0.00;0.00;;;;;;;;5095917;27;45465;-42
2021/12/08 01:06:27;;;;;;;;;0.00;0.00;;;;;;;;5077732;27;45664;-43
2021/12/08 01:08:53;;;;;;;;;0.00;0.00;;;;;;;;5095944;27;45485;-44
2021/12/08 01:11:19;;;;;;;;;0.00;0.00;;;;;;;;5078348;27;46602;-43
2021/12/08 01:13:45;;;;;;;;;0.00;0.00;;;;;;;;5095742;27;45327;-44
2021/12/08 01:16:10;;;;;;;;;0.00;0.00;;;;;;;;5096236;27;45262;-42
2021/12/08 01:18:35;;;;;;;;;0.25;0.25;;;;;;;;5096096;27;45546;-44
2021/12/08 01:21:03;;;;;;;;;0.00;0.00;;;;;;;;5096327;27;45429;-46
2021/12/08 01:23:28;;;;;;;;;0.00;0.00;;;;;;;;5096614;27;45431;-46
2021/12/08 01:25:54;;;;;;;;;0.00;0.00;;;;;;;;5096398;27;45453;-45
2021/12/08 01:28:21;;;;;;;;;0.00;0.00;;;;;;;;5092719;27;45729;-45
2021/12/08 01:30:48;;;;;;;;;1.00;0.00;;;;;;;;5091263;27;46322;-44
2021/12/08 01:33:14;;;;;;;;;1.00;0.00;;;;;;;;5078318;27;45435;-43
2021/12/08 01:35:39;;;;;;;;;0.00;0.00;;;;;;;;5078278;27;45343;-44
2021/12/08 01:38:04;;;;;;;;;0.75;0.75;;;;;;;;5094285;27;45349;-41
2021/12/08 01:40:29;;;;;;;;;0.00;0.00;;;;;;;;5087447;27;46355;-43
2021/12/08 01:42:57;;;;;;;;;1.00;1.00;;;;;;;;5097015;27;45521;-42
2021/12/08 01:48:09;;;;;;;;;0.00;0.00;;;;;;;;5091244;27;45548;-43
2021/12/08 01:50:35;;;;;;;;;2.75;0.75;;;;;;;;5093611;27;46585;-44
2021/12/08 01:53:00;;;;;;;;;0.50;0.50;;;;;;;;5093774;27;45160;-43
2021/12/08 01:55:25;;;;;;;;;0.00;0.00;;;;;;;;5095580;27;45625;-42
2021/12/08 01:57:51;;;;;;;;;0.50;0.25;;;;;;;;5077035;27;45468;-42
2021/12/08 02:00:36;;;;;;;;;1.00;1.00;;;;;;;;5095657;27;45477;-43
2021/12/08 02:03:02;;;;;;;;;0.00;0.00;;;;;;;;5090456;27;45692;-43
2021/12/08 02:05:27;;;;;;;;;0.00;0.00;;;;;;;;5095472;27;45579;-42
2021/12/08 02:07:52;;;;;;;;;1.00;1.00;;;;;;;;5093299;27;45408;-42
2021/12/08 02:10:19;;;;;;;;;0.25;0.00;;;;;;;;5093284;27;45464;-43
2021/12/08 02:12:44;;;;;;;;;1.00;0.00;;;;;;;;5076226;27;45437;-44
2021/12/08 02:15:12;;;;;;;;;1.50;0.75;;;;;;;;5095146;27;45538;-42
2021/12/08 02:17:38;;;;;;;;;0.00;0.00;;;;;;;;5096294;27;45480;-43
2021/12/08 02:20:04;;;;;;;;;0.25;0.00;;;;;;;;5089734;27;46208;-45
2021/12/08 02:22:30;;;;;;;;;1.00;0.50;;;;;;;;5096031;27;45437;-42
2021/12/08 02:24:55;;;;;;;;;0.00;0.00;;;;;;;;5096175;27;45459;-43
2021/12/08 02:27:20;;;;;;;;;0.00;0.00;;;;;;;;5095804;27;45225;-43
2021/12/08 02:29:54;;;;;;;;;1.50;0.50;;;;;;;;5095549;27;45463;-42
2021/12/08 02:48:25;;;;;;;;;2.75;0.00;;;;;;;;5097077;27;45410;-44
2021/12/08 02:50:50;;;;;;;;;0.00;0.00;;;;;;;;5095208;27;45684;-42
2021/12/08 02:53:16;;;;;;;;;0.00;0.00;;;;;;;;5092840;27;45484;-42
2021/12/08 02:55:41;;;;;;;;;0.50;0.00;;;;;;;;5084066;27;45343;-43
2021/12/08 02:58:07;;;;;;;;;0.25;0.25;;;;;;;;5084123;27;45455;-42
2021/12/08 03:00:38;;;;;;;;;1.00;0.00;;;;;;;;5080251;27;46617;-44
2021/12/08 03:03:04;;;;;;;;;0.00;0.00;;;;;;;;5080499;27;45477;-43
2021/12/08 03:05:30;;;;;;;;;0.00;0.00;;;;;;;;5085393;27;45311;-43
2021/12/08 03:07:55;;;;;;;;;0.75;0.25;;;;;;;;5077692;27;45559;-44
2021/12/08 03:10:22;;;;;;;;;0.75;0.25;;;;;;;;5096399;27;45170;-43
2021/12/08 03:12:48;;;;;;;;;0.00;0.00;;;;;;;;5090388;27;45307;-42
2021/12/08 03:15:14;;;;;;;;;0.00;0.00;;;;;;;;5093744;27;45406;-42
2021/12/08 03:17:39;;;;;;;;;1.75;0.75;;;;;;;;5080601;27;45197;-44
2021/12/08 03:20:09;;;;;;;;;0.00;0.00;;;;;;;;5079644;27;45499;-43
2021/12/08 03:22:40;;;;;;;;;2.75;0.50;;;;;;;;5083257;27;45499;-43
2021/12/08 03:25:07;;;;;;;;;0.00;0.00;;;;;;;;5086758;27;45461;-43
2021/12/08 03:27:37;;;;;;;;;0.50;0.00;;;;;;;;5061324;28;45358;-42
2021/12/08 03:30:14;;;;;;;;;0.00;0.00;;;;;;;;5079217;27;45289;-44
2021/12/08 03:32:40;;;;;;;;;0.50;0.00;;;;;;;;5079216;27;45440;-43
2021/12/08 03:35:06;;;;;;;;;0.00;0.00;;;;;;;;5079502;27;45170;-44
2021/12/08 03:37:35;;;;;;;;;0.00;0.00;;;;;;;;5079697;27;45325;-42
2021/12/08 03:40:01;;;;;;;;;0.50;0.50;;;;;;;;5079224;27;45718;-42
2021/12/08 03:42:29;;;;;;;;;0.25;0.25;;;;;;;;5079312;28;45274;-42
2021/12/08 03:44:57;;;;;;;;;1.25;0.00;;;;;;;;5084879;27;45416;-42
2021/12/08 03:47:28;;;;;;;;;0.00;0.00;;;;;;;;5078813;28;45576;-43
2021/12/08 03:49:54;;;;;;;;;2.00;1.50;;;;;;;;5077999;27;46479;-43
2021/12/08 03:52:19;;;;;;;;;2.00;1.00;;;;;;;;5098794;27;45265;-44
2021/12/08 03:54:44;;;;;;;;;1.00;0.00;;;;;;;;5091429;27;45205;-42
2021/12/08 03:57:10;;;;;;;;;0.25;0.00;;;;;;;;5095014;27;45621;-42
2021/12/08 03:59:35;;;;;;;;;3.00;0.00;;;;;;;;5080901;27;46134;-43
2021/12/08 04:02:00;;;;;;;;;1.50;0.00;;;;;;;;5090820;27;45489;-43
2021/12/08 04:04:28;;;;;;;;;0.00;0.00;;;;;;;;5099440;27;45322;-43
2021/12/08 04:06:55;;;;;;;;;0.00;0.00;;;;;;;;5098977;27;45480;-42
2021/12/08 04:09:36;;;;;;;;;0.00;0.00;;;;;;;;5097910;27;46113;-43
2021/12/08 04:12:02;;;;;;;;;1.00;0.25;;;;;;;;5094376;27;45421;-42
2021/12/08 04:14:30;;;;;;;;;1.00;0.00;;;;;;;;5078762;28;45441;-43
2021/12/08 04:17:05;;;;;;;;;1.00;0.25;;;;;;;;5094524;27;45478;-43
2021/12/08 04:19:31;;;;;;;;;1.00;1.00;;;;;;;;5097399;27;45520;-43
2021/12/08 04:21:59;;;;;;;;;0.75;0.00;;;;;;;;5097511;27;45268;-44
2021/12/08 04:24:25;;;;;;;;;1.50;1.50;;;;;;;;5088500;27;45215;-42
2021/12/08 04:26:52;;;;;;;;;1.75;0.75;;;;;;;;5077319;27;45479;-43
2021/12/08 04:29:21;;;;;;;;;2.00;1.00;;;;;;;;5060067;28;47384;-43
2021/12/08 04:31:47;;;;;;;;;0.50;0.50;;;;;;;;5073195;27;45443;-43
2021/12/08 04:34:18;;;;;;;;;0.00;0.00;;;;;;;;5098938;27;45262;-43
2021/12/08 04:36:46;;;;;;;;;3.00;1.00;;;;;;;;5099042;27;45265;-42
2021/12/08 04:39:19;;;;;;;;;1.00;1.00;;;;;;;;5068208;28;48021;-43
2021/12/08 04:41:51;;;;;;;;;0.00;0.00;;;;;;;;5091971;27;45435;-44
2021/12/08 04:44:32;;;;;;;;;0.00;0.00;;;;;;;;5097751;27;45333;-43
2021/12/08 04:47:22;;;;;;;;;2.00;0.00;;;;;;;;5097761;27;45257;-43
2021/12/08 04:52:31;;;;;;;;;2.00;1.00;;;;;;;;5097925;27;45405;-43
2021/12/08 05:03:39;;;;;;;;;1.00;1.00;;;;;;;;5077577;27;45448;-43
2021/12/08 05:08:41;;;;;;;;;1.00;0.00;;;;;;;;5086606;27;45522;-44
2021/12/08 05:11:09;;;;;;;;;1.25;1.25;;;;;;;;5098346;27;45404;-42
2021/12/08 05:13:34;;;;;;;;;0.75;0.75;;;;;;;;5097594;27;45500;-44
2021/12/08 05:15:59;;;;;;;;;0.75;0.75;;;;;;;;5093231;27;45440;-44
2021/12/08 05:18:26;;;;;;;;;0.00;0.00;;;;;;;;5094257;27;45690;-44
2021/12/08 05:20:56;;;;;;;;;1.25;1.25;;;;;;;;5086004;27;46565;-44
2021/12/08 05:23:29;;;;;;;;;1.50;0.50;;;;;;;;5097004;27;45429;-43
2021/12/08 05:25:56;;;;;;;;;2.00;0.50;;;;;;;;5096012;27;45224;-43
2021/12/08 05:28:23;;;;;;;;;0.00;0.00;;;;;;;;5092300;27;45546;-43
2021/12/08 05:30:55;;;;;;;;;1.75;1.00;;;;;;;;5083822;27;46362;-42
2021/12/08 05:33:21;;;;;;;;;1.00;1.00;;;;;;;;5097797;27;45235;-43
2021/12/08 05:35:46;;;;;;;;;0.75;0.75;;;;;;;;5097499;27;45326;-43
2021/12/08 05:38:12;;;;;;;;;2.50;2.50;;;;;;;;5096698;27;45731;-42
2021/12/08 05:40:52;;;;;;;;;2.25;2.25;;;;;;;;5084973;27;45416;-43
2021/12/08 05:43:17;;;;;;;;;1.00;1.00;;;;;;;;5097774;27;45364;-44
2021/12/08 05:45:43;;;;;;;;;1.00;1.00;;;;;;;;5097115;27;45201;-42
2021/12/08 05:48:09;;;;;;;;;3.50;1.25;;;;;;;;5096543;27;45307;-43
2021/12/08 05:50:54;;;;;;;;;0.00;0.00;;;;;;;;5092414;27;46178;-44
2021/12/08 05:53:21;;;;;;;;;1.00;1.00;;;;;;;;5086641;27;45363;-43
2021/12/08 05:55:46;;;;;;;;;1.00;1.00;;;;;;;;5077429;28;45370;-45
2021/12/08 05:58:19;;;;;;;;;0.50;0.50;;;;;;;;5082900;27;45362;-43
2021/12/08 06:00:53;;;;;;;;;3.00;2.00;;;;;;;;5096882;27;47146;-43
2021/12/08 06:03:19;;;;;;;;;1.75;1.75;;;;;;;;5096210;27;45548;-42
2021/12/08 06:05:46;;;;;;;;;3.00;0.50;;;;;;;;5096927;27;45578;-43
2021/12/08 06:08:12;;;;;;;;;1.00;1.00;;;;;;;;5075983;27;45476;-44
2021/12/08 06:10:38;;;;;;;;;1.00;1.00;;;;;;;;5080913;27;45419;-44
2021/12/08 06:13:04;;;;;;;;;1.50;1.50;;;;;;;;5097313;27;45393;-43
2021/12/08 06:15:30;;;;;;;;;2.25;2.00;;;;;;;;5096262;27;45641;-43
2021/12/08 06:17:55;;;;;;;;;0.75;0.75;;;;;;;;5096799;27;45478;-43
2021/12/08 06:20:22;;;;;;;;;0.50;0.50;;;;;;;;5096371;27;45543;-43
2021/12/08 06:22:48;;;;;;;;;1.00;1.00;;;;;;;;5096239;27;45418;-43
2021/12/08 06:25:15;;;;;;;;;1.00;1.00;;;;;;;;5097293;27;45213;-44
2021/12/08 06:27:40;;;;;;;;;2.00;1.25;;;;;;;;5096687;27;45564;-42
2021/12/08 06:30:09;;;;;;;;;2.00;1.00;;;;;;;;5091671;27;46076;-43
2021/12/08 06:32:34;;;;;;;;;2.00;0.00;;;;;;;;5091197;27;45484;-43
2021/12/08 06:34:59;;;;;;;;;1.00;1.00;;;;;;;;5100871;27;45346;-45
2021/12/08 06:37:31;;;;;;;;;0.75;0.50;;;;;;;;5113291;27;45252;-43
2021/12/08 06:40:05;;;;;;;;;0.75;0.75;;;;;;;;5096200;27;46399;-44
2021/12/08 06:42:32;;;;;;;;;0.25;0.25;;;;;;;;5095872;27;45272;-43
2021/12/08 06:44:57;;;;;;;;;0.75;0.75;;;;;;;;5094468;27;45500;-42
2021/12/08 06:47:24;;;;;;;;;0.50;0.50;;;;;;;;5092516;27;45391;-44
2021/12/08 06:49:51;;;;;;;;;1.25;1.25;;;;;;;;5097133;27;46640;-44
2021/12/08 06:52:18;;;;;;;;;1.25;0.25;;;;;;;;5100470;27;45340;-44
2021/12/08 06:54:45;;;;;;;;;1.00;1.00;;;;;;;;5090949;27;45468;-44
2021/12/08 06:57:20;;;;;;;;;0.25;0.25;;;;;;;;5100005;27;45713;-45
2021/12/08 07:00:16;;;;;;;;;2.00;1.00;;;;;;;;5099083;27;45948;-43
2021/12/08 07:05:26;;;;;;;;;1.25;0.75;;;;;;;;5081730;27;45257;-44
2021/12/08 07:07:52;;;;;;;;;1.00;1.00;;;;;;;;5074546;27;45633;-44
2021/12/08 07:10:21;;;;;;;;;2.25;2.25;;;;;;;;5098039;27;46093;-53
2021/12/08 07:12:50;;;;;;;;;4.00;2.00;;;;;;;;5094844;27;45519;-57
2021/12/08 07:15:15;;;;;;;;;2.50;1.75;;;;;;;;5073361;27;45409;-53
2021/12/08 07:17:42;;;;;;;;;2.00;1.00;;;;;;;;5094840;27;45471;-44
2021/12/08 07:23:19;;;;;;;;;1.00;1.00;;;;;;;;5030747;28;45482;-42
2021/12/08 07:25:45;;;;;;;;;1.00;1.00;;;;;;;;5025760;28;45488;-42
2021/12/08 07:28:11;;;;;;;;;1.00;1.00;;;;;;;;5066515;27;45665;-50
2021/12/08 07:30:46;;;;;;;;;0.75;0.75;;;;;;;;5096281;27;45350;-52
2021/12/08 07:33:11;;;;;;;;;1.00;1.00;;;;;;;;5079561;27;45530;-50
2021/12/08 07:35:45;;;;;;;;;1.00;1.00;;;;;;;;5099549;27;45320;-44
2021/12/08 07:38:17;;;;;;;;;5.50;4.00;;;;;;;;5098740;27;45595;-46
2021/12/08 07:40:50;;;;;;;;;3.00;1.75;;;;;;;;5080180;27;48180;-48
2021/12/08 07:43:16;;;;;;;;;1.00;1.00;;;;;;;;5098163;27;45596;-46
2021/12/08 07:45:44;;;;;;;;;1.50;1.50;;;;;;;;5096707;27;45558;-45
2021/12/08 07:48:12;;;;;;;;;2.00;2.00;;;;;;;;5095968;27;45520;-44
2021/12/08 07:50:44;;;;;;;;;3.75;1.00;;;;;;;;5079774;27;46847;-49
2021/12/08 07:53:11;;;;;;;;;1.50;1.00;;;;;;;;5096616;27;45533;-47
2021/12/08 07:55:38;;;;;;;;;2.00;1.25;;;;;;;;5078776;27;45445;-46
2021/12/08 07:58:04;;;;;;;;;2.00;2.00;;;;;;;;5092641;27;45581;-49
2021/12/08 08:00:36;;;;;;;;;0.00;0.00;;;;;;;;5097473;27;45514;-46
2021/12/08 08:03:02;;;;;;;;;3.00;1.00;;;;;;;;5093291;27;45394;-45
2021/12/08 08:05:28;;;;;;;;;1.00;1.00;;;;;;;;5067378;27;45469;-47
2021/12/08 08:07:56;;;;;;;;;1.00;1.00;;;;;;;;5099002;27;45511;-47
2021/12/08 08:10:22;;;;;;;;;1.00;1.00;;;;;;;;5098294;27;47317;-46
2021/12/08 08:12:51;;;;;;;;;4.00;1.00;;;;;;;;5091504;27;45473;-47
2021/12/08 08:15:21;;;;;;;;;1.00;1.00;;;;;;;;5084077;27;45565;-47
2021/12/08 08:17:51;;;;;;;;;1.00;1.00;;;;;;;;5098672;27;45426;-50
2021/12/08 08:20:28;;;;;;;;;6.00;0.50;;;;;;;;5079806;27;45652;-47
2021/12/08 08:22:54;;;;;;;;;1.75;1.25;;;;;;;;5097750;27;45485;-47
2021/12/08 08:25:21;;;;;;;;;1.00;1.00;;;;;;;;5097792;27;45495;-47
2021/12/08 08:27:47;;;;;;;;;6.00;2.00;;;;;;;;5097445;27;45447;-49
2021/12/08 08:30:17;;;;;;;;;1.25;1.25;;;;;;;;5097926;27;46052;-48
2021/12/08 08:32:47;;;;;;;;;2.00;1.00;;;;;;;;5097893;27;45523;-48
2021/12/08 08:35:15;;;;;;;;;3.00;1.00;;;;;;;;5098279;27;45516;-49
2021/12/08 08:37:42;;;;;;;;;1.00;1.00;;;;;;;;5098581;27;45417;-49
2021/12/08 08:40:14;;;;;;;;;2.00;2.00;;;;;;;;5097207;27;46713;-46
2021/12/08 08:42:40;;;;;;;;;4.00;2.25;;;;;;;;5085974;27;45216;-49
2021/12/08 08:45:06;;;;;;;;;1.50;1.50;;;;;;;;5097639;27;45413;-48
2021/12/08 08:47:34;;;;;;;;;2.00;1.00;;;;;;;;5098430;27;45605;-46
2021/12/08 08:49:59;;;;;;;;;1.00;1.00;;;;;;;;5097660;27;45560;-46
2021/12/08 08:52:31;;;;;;;;;1.00;1.00;;;;;;;;5096880;27;45612;-46
2021/12/08 08:54:58;;;;;;;;;1.25;1.25;;;;;;;;5096828;27;45424;-46
2021/12/08 08:57:35;;;;;;;;;2.00;1.50;;;;;;;;5097681;27;45640;-47
2021/12/08 09:00:20;;;;;;;;;0.75;0.75;;;;;;;;5079468;27;47587;-48
2021/12/08 09:02:47;;;;;;;;;1.50;1.50;;;;;;;;5097176;27;45480;-47
2021/12/08 09:05:15;;;;;;;;;1.00;1.00;;;;;;;;5096915;27;45327;-51
2021/12/08 09:07:42;;;;;;;;;1.00;1.00;;;;;;;;5097491;27;45410;-47
2021/12/08 09:10:10;;;;;;;;;0.50;0.50;;;;;;;;5097596;27;46293;-49
2021/12/08 09:12:40;;;;;;;;;3.50;2.25;;;;;;;;5095997;27;45385;-49
2021/12/08 09:15:09;;;;;;;;;0.75;0.00;;;;;;;;5079693;27;45242;-49
2021/12/08 09:17:37;;;;;;;;;2.50;1.75;;;;;;;;5096953;27;45461;-47
2021/12/08 09:20:12;;;;;;;;;0.00;0.00;;;;;;;;5097868;27;46267;-49
2021/12/08 09:22:40;;;;;;;;;1.00;1.00;;;;;;;;5097565;27;45303;-47
2021/12/08 09:25:14;;;;;;;;;5.00;1.75;;;;;;;;5098008;27;45447;-47
2021/12/08 09:27:45;;;;;;;;;4.00;1.50;;;;;;;;5096416;27;45453;-46
2021/12/08 09:30:15;;;;;;;;;4.00;1.00;;;;;;;;5096918;27;46583;-46
2021/12/08 09:32:43;;;;;;;;;1.25;1.00;;;;;;;;5097145;27;45405;-47
2021/12/08 09:35:12;;;;;;;;;2.00;1.00;;;;;;;;5096723;27;45515;-51
2021/12/08 09:37:40;;;;;;;;;1.00;1.00;;;;;;;;5096609;27;45457;-45
2021/12/08 09:40:11;;;;;;;;;0.00;0.00;;;;;;;;5096689;27;45282;-47
2021/12/08 09:42:41;;;;;;;;;0.75;0.75;;;;;;;;5096419;27;45342;-49
2021/12/08 09:45:10;;;;;;;;;1.25;1.25;;;;;;;;5097091;27;45423;-46
2021/12/08 09:47:36;;;;;;;;;3.00;2.00;;;;;;;;5078437;27;45430;-46
2021/12/08 09:50:04;;;;;;;;;1.00;1.00;;;;;;;;5096292;27;45969;-47
2021/12/08 09:52:30;;;;;;;;;5.00;2.25;;;;;;;;5097544;27;45374;-48
2021/12/08 09:54:56;;;;;;;;;1.00;1.00;;;;;;;;5096897;27;45303;-50
2021/12/08 09:57:22;;;;;;;;;2.00;1.00;;;;;;;;5095731;27;45553;-47
2021/12/08 09:59:48;;;;;;;;;2.75;1.50;;;;;;;;5096526;27;46258;-49
2021/12/08 10:02:25;;;;;;;;;0.00;0.00;;;;;;;;5078223;27;45705;-47
2021/12/08 10:04:50;;;;;;;;;2.00;2.00;;;;;;;;5096386;27;45427;-46
2021/12/08 10:07:18;;;;;;;;;1.50;1.50;;;;;;;;5092788;27;45457;-45
2021/12/08 10:09:43;;;;;;;;;1.50;1.50;;;;;;;;5096637;27;46238;-48
2021/12/08 10:12:08;;;;;;;;;5.50;4.00;;;;;;;;5079226;27;45671;-49
2021/12/08 10:14:34;;;;;;;;;1.00;1.00;;;;;;;;5086765;27;45158;-48
2021/12/08 10:17:00;;;;;;;;;1.00;1.00;;;;;;;;5085066;27;45624;-47
2021/12/08 10:19:25;;;;;;;;;3.50;2.00;;;;;;;;5085702;27;46290;-47
2021/12/08 10:21:50;;;;;;;;;2.50;2.50;;;;;;;;5069488;28;45349;-46
2021/12/08 10:24:21;;;;;;;;;6.00;2.50;;;;;;;;5075479;27;45219;-45
2021/12/08 10:26:47;;;;;;;;;1.25;1.25;;;;;;;;5089377;27;45525;-46
2021/12/08 10:29:12;;;;;;;;;1.75;1.75;;;;;;;;5094257;27;47996;-47
2021/12/08 10:31:43;;;;;;;;;1.00;1.00;;;;;;;;5095889;27;45361;-45
2021/12/08 10:36:46;;;;;;;;;1.00;1.00;;;;;;;;5091658;27;45563;-46
2021/12/08 10:39:20;;;;;;;;;3.00;3.00;;;;;;;;5092298;27;45454;-46
2021/12/08 10:41:55;;;;;;;;;0.25;0.25;;;;;;;;5093593;27;45543;-46
2021/12/08 10:44:25;;;;;;;;;1.00;1.00;;;;;;;;5095345;27;45503;-48
2021/12/08 10:46:54;;;;;;;;;1.00;0.25;;;;;;;;5095298;27;45549;-46
2021/12/08 10:49:27;;;;;;;;;0.75;0.75;;;;;;;;5094866;27;46144;-45
2021/12/08 10:54:36;;;;;;;;;2.00;0.75;;;;;;;;5096087;27;45420;-50
2021/12/08 10:57:04;;;;;;;;;3.00;1.00;;;;;;;;5092734;27;45332;-46
2021/12/08 10:59:48;;;;;;;;;6.00;1.50;;;;;;;;5096226;27;46063;-47
2021/12/08 11:02:32;;;;;;;;;3.00;2.00;;;;;;;;5094719;27;45334;-46
2021/12/08 11:04:57;;;;;;;;;2.75;2.75;;;;;;;;5095987;27;45354;-45
2021/12/08 11:07:22;;;;;;;;;2.00;2.00;;;;;;;;5093405;27;45584;-46
2021/12/08 11:09:47;;;;;;;;;1.00;1.00;;;;;;;;5095931;27;45685;-47
2021/12/08 11:12:12;;;;;;;;;4.00;2.25;;;;;;;;5095623;27;45365;-50
2021/12/08 11:14:45;;;;;;;;;1.25;1.00;;;;;;;;5096136;27;45421;-46
2021/12/08 11:17:27;;;;;;;;;53.00;44.75;;;;;;;;5095502;27;45322;-45
2021/12/08 11:20:11;;;;;;;;;19.25;19.00;;;;;;;;5095938;27;46679;-49
2021/12/08 11:22:36;;;;;;;;;3.00;2.50;;;;;;;;5096020;27;45500;-46
2021/12/08 11:25:02;;;;;;;;;5.25;2.25;;;;;;;;5076413;27;45421;-48
2021/12/08 11:27:29;;;;;;;;;2.50;1.50;;;;;;;;5095790;27;45344;-49
2021/12/08 11:29:54;;;;;;;;;0.00;0.00;;;;;;;;5095324;27;46115;-49
2021/12/08 11:32:22;;;;;;;;;3.00;3.00;;;;;;;;5095659;27;45384;-48
2021/12/08 11:34:48;;;;;;;;;2.00;2.00;;;;;;;;5094552;27;45470;-47
2021/12/08 11:37:15;;;;;;;;;2.75;2.75;;;;;;;;5096994;27;45515;-46
2021/12/08 11:39:45;;;;;;;;;3.00;1.75;;;;;;;;5090306;27;45478;-47
2021/12/08 11:42:12;;;;;;;;;1.75;1.25;;;;;;;;5079978;27;45382;-46
2021/12/08 11:44:39;;;;;;;;;1.75;1.75;;;;;;;;5099118;27;45450;-46
2021/12/08 11:47:09;;;;;;;;;5.25;5.25;;;;;;;;5099080;27;45549;-46
2021/12/08 11:49:39;;;;;;;;;4.00;4.00;;;;;;;;5098588;27;46260;-46
2021/12/08 11:52:15;;;;;;;;;4.75;3.00;;;;;;;;5098148;27;45346;-48
2021/12/08 11:54:50;;;;;;;;;5.50;5.50;;;;;;;;5098935;27;45324;-49
2021/12/08 11:57:21;;;;;;;;;1.75;1.00;;;;;;;;5098239;27;45474;-48
2021/12/08 11:59:49;;;;;;;;;0.00;0.00;;;;;;;;5098078;27;46005;-46
2021/12/08 12:02:15;;;;;;;;;1.25;1.25;;;;;;;;5096747;27;45460;-47
2021/12/08 12:04:43;;;;;;;;;3.00;2.00;;;;;;;;5098248;27;45377;-48
2021/12/08 12:07:12;;;;;;;;;3.75;1.00;;;;;;;;5088040;27;45275;-45
2021/12/08 12:09:38;;;;;;;;;2.00;2.00;;;;;;;;5081031;27;46367;-49
2021/12/08 12:12:04;;;;;;;;;7.25;6.25;;;;;;;;5093379;27;45488;-46
2021/12/08 12:14:29;;;;;;;;;2.00;2.00;;;;;;;;5097978;27;45493;-50
2021/12/08 12:16:55;;;;;;;;;4.25;4.25;;;;;;;;5099068;27;45536;-50
2021/12/08 12:19:21;;;;;;;;;2.00;1.00;;;;;;;;5098938;27;45500;-49
2021/12/08 12:22:05;;;;;;;;;2.00;0.75;;;;;;;;5098975;27;45429;-47
2021/12/08 12:24:52;;;;;;;;;2.25;2.25;;;;;;;;5075588;27;45514;-47
2021/12/08 12:27:26;;;;;;;;;2.00;2.00;;;;;;;;5093481;27;45482;-50
2021/12/08 12:30:01;;;;;;;;;2.00;2.00;;;;;;;;5079857;27;46247;-50
2021/12/08 12:32:30;;;;;;;;;5.75;3.00;;;;;;;;5088640;27;45420;-48
2021/12/08 12:35:13;;;;;;;;;2.67;2.00;;;;;;;;5077963;27;45219;-50
2021/12/08 12:37:38;;;;;;;;;1.00;1.00;;;;;;;;5080238;27;45579;-49
2021/12/08 12:40:06;;;;;;;;;4.25;2.00;;;;;;;;5088635;27;46107;-48
2021/12/08 12:42:42;;;;;;;;;2.00;1.00;;;;;;;;5079218;27;45350;-47
2021/12/08 12:45:09;;;;;;;;;3.25;3.00;;;;;;;;5089116;27;45316;-51
2021/12/08 12:47:35;;;;;;;;;4.50;4.25;;;;;;;;5081592;27;45639;-45
2021/12/08 12:50:00;;;;;;;;;3.00;3.00;;;;;;;;5098403;27;45362;-48
2021/12/08 12:52:36;;;;;;;;;2.50;2.50;;;;;;;;5098491;27;45448;-45
2021/12/08 12:55:07;;;;;;;;;3.75;3.75;;;;;;;;5098603;27;45452;-46
2021/12/08 12:57:32;;;;;;;;;2.67;2.67;;;;;;;;5097621;27;45408;-47
2021/12/08 12:59:58;;;;;;;;;2.00;2.00;;;;;;;;5098094;27;45611;-50
2021/12/08 13:02:34;;;;;;;;;1.50;1.50;;;;;;;;5097987;27;45379;-49
2021/12/08 13:05:00;;;;;;;;;1.00;1.00;;;;;;;;5080038;27;45428;-46
2021/12/08 13:07:27;;;;;;;;;2.25;1.75;;;;;;;;5078905;27;45429;-46
2021/12/08 13:09:54;;;;;;;;;2.50;1.75;;;;;;;;5093530;27;46377;-48
2021/12/08 13:12:24;;;;;;;;;1.67;1.67;;;;;;;;5077603;27;45327;-49
2021/12/08 13:15:13;;;;;;;;;0.67;0.67;;;;;;;;5077561;28;45482;-49
2021/12/08 13:17:58;;;;;;;;;1.00;1.00;;;;;;;;5066849;27;45283;-48
2021/12/08 13:20:25;;;;;;;;;0.00;0.00;;;;;;;;5077273;28;45295;-49
2021/12/08 13:22:53;;;;;;;;;2.67;1.00;;;;;;;;5077312;28;45256;-47
2021/12/08 13:25:25;;;;;;;;;6.00;4.00;;;;;;;;5059193;28;45412;-46
2021/12/08 13:28:08;;;;;;;;;0.67;0.67;;;;;;;;5077649;28;45355;-50
2021/12/08 13:30:34;;;;;;;;;4.00;4.00;;;;;;;;5077057;28;45374;-48
2021/12/08 13:33:08;;;;;;;;;1.33;1.00;;;;;;;;5077197;27;45603;-48
2021/12/08 13:35:34;;;;;;;;;1.00;1.00;;;;;;;;5077522;28;45287;-48
2021/12/08 13:38:00;;;;;;;;;3.00;1.00;;;;;;;;5077417;27;45549;-47
2021/12/08 13:40:40;;;;;;;;;0.00;0.00;;;;;;;;5086149;27;45356;-51
2021/12/08 13:43:06;;;;;;;;;0.33;0.33;;;;;;;;5097612;27;45401;-50
2021/12/08 13:45:44;;;;;;;;;2.00;1.00;;;;;;;;5097440;27;45428;-47
2021/12/08 13:48:10;;;;;;;;;0.67;0.00;;;;;;;;5097675;27;45369;-46
2021/12/08 13:50:36;;;;;;;;;0.33;0.00;;;;;;;;5097184;27;46035;-50
2021/12/08 13:53:06;;;;;;;;;1.00;1.00;;;;;;;;5096751;27;45406;-50
2021/12/08 13:55:33;;;;;;;;;0.67;0.67;;;;;;;;5097513;27;45326;-47
2021/12/08 13:58:04;;;;;;;;;0.00;0.00;;;;;;;;5097200;27;45329;-50
2021/12/08 14:00:31;;;;;;;;;0.00;0.00;;;;;;;;5097055;27;47298;-46
2021/12/08 14:03:04;;;;;;;;;0.00;0.00;;;;;;;;5096863;27;45373;-47
2021/12/08 14:05:31;;;;;;;;;0.00;0.00;;;;;;;;5097421;27;45288;-46
2021/12/08 14:07:58;;;;;;;;;2.00;1.00;;;;;;;;5097203;27;45480;-49
2021/12/08 14:10:25;;;;;;;;;0.00;0.00;;;;;;;;5084715;27;47280;-46
2021/12/08 14:12:50;;;;;;;;;1.33;0.00;;;;;;;;5076310;28;45461;-48
2021/12/08 14:15:17;;;;;;;;;0.67;0.00;;;;;;;;5076573;27;45496;-50
2021/12/08 14:17:42;;;;;;;;;1.33;1.33;;;;;;;;5076667;27;45510;-49
2021/12/08 14:20:28;;;;;;;;;0.00;0.00;;;;;;;;5076559;28;46202;-49
2021/12/08 14:22:54;;;;;;;;;3.50;3.50;;;;;;;;5076051;28;45422;-50
2021/12/08 14:25:29;;;;;;;;;4.33;2.00;;;;;;;;5077198;27;45435;-47
2021/12/08 14:27:54;;;;;;;;;1.00;1.00;;;;;;;;5076580;27;45365;-48
2021/12/08 14:30:20;;;;;;;;;0.75;0.75;;;;;;;;5076470;28;45369;-51
2021/12/08 14:32:58;;;;;;;;;2.00;1.00;;;;;;;;5076319;28;45445;-51
2021/12/08 14:35:23;;;;;;;;;0.00;0.00;;;;;;;;5076229;27;45397;-46
2021/12/08 14:37:48;;;;;;;;;1.00;1.00;;;;;;;;5076441;28;45649;-46
2021/12/08 14:40:18;;;;;;;;;0.33;0.33;;;;;;;;5089135;27;45455;-48
2021/12/08 14:42:43;;;;;;;;;1.00;1.00;;;;;;;;5096829;27;45445;-47
2021/12/08 14:45:10;;;;;;;;;0.33;0.33;;;;;;;;5096708;27;45328;-45
2021/12/08 14:47:37;;;;;;;;;0.00;0.00;;;;;;;;5096560;27;45250;-47
2021/12/08 14:50:10;;;;;;;;;0.00;0.00;;;;;;;;5095498;27;45378;-47
2021/12/08 14:52:37;;;;;;;;;1.33;1.00;;;;;;;;5096504;27;45290;-46
2021/12/08 14:55:05;;;;;;;;;1.00;1.00;;;;;;;;5096487;27;45242;-46
2021/12/08 14:57:40;;;;;;;;;1.00;1.00;;;;;;;;5095864;27;45531;-47
2021/12/08 15:00:14;;;;;;;;;0.33;0.33;;;;;;;;5096396;27;45243;-45
2021/12/08 15:02:39;;;;;;;;;1.00;0.00;;;;;;;;5096527;27;45184;-49
2021/12/08 15:05:06;;;;;;;;;1.00;1.00;;;;;;;;5096645;27;45247;-46
2021/12/08 15:07:32;;;;;;;;;1.00;1.00;;;;;;;;5096578;27;45520;-48
2021/12/08 15:10:04;;;;;;;;;1.33;0.33;;;;;;;;5082777;27;46341;-48
2021/12/08 15:12:29;;;;;;;;;1.00;1.00;;;;;;;;5079647;28;45363;-50
2021/12/08 15:14:55;;;;;;;;;2.00;2.00;;;;;;;;5079836;28;45374;-47
2021/12/08 15:17:31;;;;;;;;;0.00;0.00;;;;;;;;5079781;28;45648;-47
2021/12/08 15:19:57;;;;;;;;;1.00;0.00;;;;;;;;5079327;27;45386;-46
2021/12/08 15:22:37;;;;;;;;;1.00;1.00;;;;;;;;5079488;28;45471;-48
2021/12/08 15:25:13;;;;;;;;;0.67;0.67;;;;;;;;5068784;27;45429;-49
2021/12/08 15:27:39;;;;;;;;;0.67;0.67;;;;;;;;5100100;27;45208;-47
2021/12/08 15:30:06;;;;;;;;;0.00;0.00;;;;;;;;5098620;27;45367;-47
2021/12/08 15:32:31;;;;;;;;;1.00;1.00;;;;;;;;5099672;27;45363;-48
2021/12/08 15:35:04;;;;;;;;;0.50;0.50;;;;;;;;5099895;27;45246;-46